Time;durP1;ratioP1;P1;durP2;ratioP2;P2;SDS_P1;SDS_P2;PMS_P1;PMS_P2;Temp;Humidity;BMP_temperature;BMP_pressure;BME280_temperature;BME280_humidity;BME280_pressure;Samples;Min_cycle;Max_cycle;Signal;HPM_P1;HPM_P2
2022/01/05 00:01:43;;;;;;;0.83;0.83;;;;;;;9.29;73.48;94080.13;5016799;28;20250;-82
2022/01/05 00:04:13;;;;;;;0.80;0.80;;;;;;;9.30;73.39;94075.75;5001999;28;20203;-82
2022/01/05 00:06:41;;;;;;;1.27;0.80;;;;;;;9.26;72.90;94084.88;5005640;28;20203;-85
2022/01/05 00:09:08;;;;;;;0.70;0.70;;;;;;;9.20;72.82;94091.63;5008440;28;20208;-85
2022/01/05 00:11:36;;;;;;;0.87;0.87;;;;;;;9.23;72.40;94093.78;5017076;28;20600;-86
2022/01/05 00:14:03;;;;;;;1.63;0.90;;;;;;;9.22;72.14;94104.25;5015491;28;20202;-84
2022/01/05 00:16:30;;;;;;;1.07;0.90;;;;;;;9.20;70.92;94112.16;5004588;28;20282;-84
2022/01/05 00:18:56;;;;;;;1.00;0.90;;;;;;;9.16;71.51;94123.84;5017141;28;20199;-80
2022/01/05 00:21:23;;;;;;;0.90;0.90;;;;;;;9.07;72.24;94125.03;5015511;28;20242;-85
2022/01/05 00:23:51;;;;;;;1.10;1.10;;;;;;;8.95;72.97;94124.88;5016317;28;20209;-84
2022/01/05 00:26:17;;;;;;;0.90;0.90;;;;;;;8.82;71.45;94124.94;5016442;28;20226;-85
2022/01/05 00:28:44;;;;;;;0.90;0.90;;;;;;;8.85;72.91;94128.88;5011462;28;20216;-84
2022/01/05 00:31:10;;;;;;;0.83;0.83;;;;;;;8.84;73.01;94128.09;5010208;28;20231;-85
2022/01/05 00:33:37;;;;;;;1.03;1.00;;;;;;;8.84;73.05;94130.66;5013014;28;20202;-84
2022/01/05 00:36:04;;;;;;;1.23;1.00;;;;;;;8.73;74.97;94138.94;5016022;28;20203;-84
2022/01/05 00:38:31;;;;;;;1.43;1.33;;;;;;;8.84;74.30;94145.25;5014174;28;20226;-84
2022/01/05 00:41:00;;;;;;;0.93;0.90;;;;;;;8.88;73.14;94144.63;5014182;28;20603;-82
2022/01/05 00:43:26;;;;;;;0.83;0.83;;;;;;;8.86;73.35;94153.53;5015716;28;20206;-85
2022/01/05 00:45:53;;;;;;;0.80;0.80;;;;;;;8.76;72.21;94160.84;5015361;28;20211;-82
2022/01/05 00:48:20;;;;;;;0.80;0.80;;;;;;;8.65;72.50;94160.50;5015217;28;20290;-85
2022/01/05 00:50:46;;;;;;;0.87;0.80;;;;;;;8.53;71.95;94161.28;5015390;28;20230;-82
2022/01/05 00:53:12;;;;;;;0.60;0.60;;;;;;;8.46;72.21;94165.63;5016059;28;20206;-81
2022/01/05 00:55:39;;;;;;;0.70;0.70;;;;;;;8.43;72.43;94155.78;5015813;28;20206;-84
2022/01/05 00:58:07;;;;;;;0.73;0.73;;;;;;;8.38;72.70;94166.63;5015191;28;20198;-80
2022/01/05 01:00:34;;;;;;;0.93;0.70;;;;;;;8.35;71.96;94166.22;5014756;28;20227;-84
2022/01/05 01:03:00;;;;;;;0.60;0.60;;;;;;;8.21;71.99;94162.84;5015284;28;20203;-83
2022/01/05 01:05:29;;;;;;;0.60;0.60;;;;;;;8.19;71.41;94159.69;5010760;28;20215;-85
2022/01/05 01:07:55;;;;;;;0.50;0.50;;;;;;;7.92;72.46;94166.53;5015604;28;20309;-84
2022/01/05 01:10:22;;;;;;;0.50;0.50;;;;;;;7.90;73.15;94169.28;5014737;28;20218;-84
2022/01/05 01:12:49;;;;;;;0.50;0.50;;;;;;;7.83;71.54;94178.75;5015690;28;20203;-83
2022/01/05 01:15:17;;;;;;;0.60;0.60;;;;;;;7.79;72.48;94172.44;5014916;28;20203;-84
2022/01/05 01:17:43;;;;;;;0.47;0.47;;;;;;;7.76;72.34;94174.59;5015098;28;20191;-85
2022/01/05 01:20:11;;;;;;;0.50;0.50;;;;;;;7.87;72.74;94185.06;5013860;28;20295;-84
2022/01/05 01:22:37;;;;;;;0.60;0.60;;;;;;;7.83;71.17;94185.66;5014510;28;20736;-83
2022/01/05 01:25:05;;;;;;;0.80;0.60;;;;;;;7.84;72.51;94195.72;5014728;28;20795;-84
2022/01/05 01:27:32;;;;;;;0.47;0.47;;;;;;;7.72;71.55;94199.78;5015174;28;20219;-83
2022/01/05 01:29:58;;;;;;;0.50;0.50;;;;;;;7.65;71.40;94209.25;5015568;28;20238;-85
2022/01/05 01:32:26;;;;;;;0.60;0.60;;;;;;;7.62;71.64;94210.41;5014259;28;20230;-83
2022/01/05 01:34:53;;;;;;;0.50;0.50;;;;;;;7.69;71.53;94209.66;5014458;28;20206;-85
2022/01/05 01:37:19;;;;;;;0.50;0.50;;;;;;;7.71;71.94;94218.72;5014411;28;20270;-85
2022/01/05 01:39:46;;;;;;;0.50;0.50;;;;;;;7.59;71.22;94205.69;5013873;28;20195;-82
2022/01/05 01:42:13;;;;;;;0.40;0.40;;;;;;;7.48;71.08;94213.91;5013928;28;20631;-84
2022/01/05 01:44:40;;;;;;;0.50;0.50;;;;;;;7.52;71.81;94209.19;5013400;28;20277;-84
2022/01/05 01:47:07;;;;;;;0.40;0.40;;;;;;;7.52;71.87;94207.41;5014312;28;20685;-83
2022/01/05 01:49:35;;;;;;;0.40;0.40;;;;;;;7.48;71.77;94210.56;5014788;28;20191;-84
2022/01/05 01:52:02;;;;;;;0.50;0.50;;;;;;;7.42;71.89;94213.88;5014576;28;20230;-83
2022/01/05 01:54:29;;;;;;;0.50;0.50;;;;;;;7.31;72.91;94209.31;5014980;28;20211;-84
2022/01/05 01:56:56;;;;;;;0.50;0.50;;;;;;;7.26;72.97;94195.31;5014658;28;20205;-84
2022/01/05 01:59:22;;;;;;;0.50;0.50;;;;;;;7.15;73.37;94198.38;5014727;28;20278;-84
2022/01/05 02:01:49;;;;;;;0.50;0.50;;;;;;;7.20;73.68;94198.63;5014037;28;20240;-80
2022/01/05 02:04:18;;;;;;;0.50;0.50;;;;;;;7.08;73.24;94195.03;5014891;28;20207;-84
2022/01/05 02:06:46;;;;;;;0.53;0.53;;;;;;;7.12;73.85;94203.88;5014790;28;20257;-83
2022/01/05 02:09:12;;;;;;;0.60;0.60;;;;;;;7.16;73.73;94199.97;5014621;28;20219;-85
2022/01/05 02:11:40;;;;;;;0.50;0.50;;;;;;;7.23;73.31;94208.47;5014288;28;20268;-83
2022/01/05 02:14:07;;;;;;;0.60;0.60;;;;;;;7.25;73.58;94203.97;5014329;28;20207;-85
2022/01/05 02:16:35;;;;;;;0.50;0.50;;;;;;;7.24;73.96;94204.16;5014943;28;20205;-84
2022/01/05 02:19:02;;;;;;;0.63;0.60;;;;;;;7.27;73.40;94203.78;5015057;28;20195;-85
2022/01/05 02:21:42;;;;;;;0.97;0.70;;;;;;;7.29;73.35;94206.94;5013913;28;20241;-82
2022/01/05 02:24:10;;;;;;;0.60;0.60;;;;;;;7.35;73.77;94211.28;5014256;28;20666;-83
2022/01/05 02:26:38;;;;;;;0.60;0.60;;;;;;;7.39;72.84;94214.25;5013930;28;20210;-85
2022/01/05 02:29:05;;;;;;;0.60;0.60;;;;;;;7.31;73.60;94211.88;5013203;28;20740;-83
2022/01/05 02:31:32;;;;;;;0.70;0.70;;;;;;;7.25;74.14;94198.84;5013401;28;20280;-83
2022/01/05 02:33:58;;;;;;;0.77;0.70;;;;;;;7.15;74.52;94205.28;5013111;28;20218;-85
2022/01/05 02:36:25;;;;;;;0.50;0.50;;;;;;;7.16;73.81;94209.41;5014457;28;20707;-84
2022/01/05 02:38:54;;;;;;;0.63;0.63;;;;;;;6.99;74.70;94214.06;5014290;28;20191;-84
2022/01/05 02:41:21;;;;;;;0.60;0.60;;;;;;;6.96;74.72;94195.72;5013407;28;20648;-86
2022/01/05 02:43:50;;;;;;;0.60;0.60;;;;;;;7.00;75.06;94209.72;5014388;28;20667;-81
2022/01/05 02:46:18;;;;;;;0.60;0.60;;;;;;;7.10;74.90;94218.66;5013626;28;20206;-83
2022/01/05 02:48:46;;;;;;;0.97;0.60;;;;;;;7.09;75.06;94218.84;5014126;28;20697;-83
2022/01/05 02:51:13;;;;;;;0.50;0.50;;;;;;;7.07;74.60;94213.13;5013041;28;20238;-84
2022/01/05 02:53:40;;;;;;;0.70;0.70;;;;;;;7.16;74.36;94217.09;5013827;28;20211;-84
2022/01/05 02:56:08;;;;;;;0.77;0.77;;;;;;;7.15;74.13;94208.63;5014169;28;20809;-84
2022/01/05 02:58:35;;;;;;;0.60;0.60;;;;;;;7.14;74.61;94211.38;5017439;28;20210;-85
2022/01/05 03:01:02;;;;;;;0.50;0.50;;;;;;;7.08;75.15;94212.16;5017082;28;20237;-84
2022/01/05 03:03:29;;;;;;;0.60;0.60;;;;;;;7.14;74.56;94212.16;5017217;28;20206;-82
2022/01/05 03:05:55;;;;;;;0.50;0.50;;;;;;;7.21;74.52;94202.75;5017434;28;20206;-84
2022/01/05 03:08:22;;;;;;;0.73;0.70;;;;;;;7.26;74.29;94210.66;5016640;28;20222;-85
2022/01/05 03:10:49;;;;;;;0.70;0.70;;;;;;;7.14;74.53;94198.56;5001691;28;20233;-84
2022/01/05 03:13:17;;;;;;;0.57;0.57;;;;;;;7.10;75.29;94210.97;5011581;28;20203;-84
2022/01/05 03:15:43;;;;;;;0.60;0.60;;;;;;;7.06;74.89;94211.53;5017599;28;20301;-84
2022/01/05 03:18:10;;;;;;;0.60;0.60;;;;;;;6.88;75.95;94217.94;5017630;28;20206;-82
2022/01/05 03:20:36;;;;;;;0.70;0.70;;;;;;;6.74;76.94;94211.13;5016871;28;20230;-85
2022/01/05 03:23:04;;;;;;;0.60;0.60;;;;;;;6.88;76.97;94222.25;5017526;28;20211;-85
2022/01/05 03:25:31;;;;;;;0.70;0.70;;;;;;;7.00;76.30;94228.44;5016983;28;20209;-84
2022/01/05 03:27:58;;;;;;;0.60;0.60;;;;;;;6.89;77.17;94219.53;5017019;28;20207;-85
2022/01/05 03:30:28;;;;;;;0.60;0.60;;;;;;;6.64;78.15;94233.69;5016880;28;20229;-80
2022/01/05 03:33:08;;;;;;;0.70;0.70;;;;;;;6.84;78.11;94218.50;5016672;28;20194;-83
2022/01/05 03:35:38;;;;;;;0.50;0.50;;;;;;;6.75;78.94;94222.94;5013385;28;20199;-82
2022/01/05 03:38:07;;;;;;;0.60;0.60;;;;;;;6.88;78.33;94222.25;5017110;28;20203;-82
2022/01/05 03:40:35;;;;;;;0.50;0.50;;;;;;;6.83;77.96;94227.13;5011462;28;20304;-81
2022/01/05 03:43:02;;;;;;;0.60;0.60;;;;;;;6.79;78.15;94223.38;5017493;28;20209;-85
2022/01/05 03:45:31;;;;;;;0.50;0.50;;;;;;;6.66;78.41;94228.41;5016445;28;20210;-81
2022/01/05 03:47:57;;;;;;;0.87;0.70;;;;;;;6.79;78.68;94225.94;5016736;28;20688;-83
2022/01/05 03:50:24;;;;;;;0.60;0.60;;;;;;;6.69;78.60;94225.47;5017178;28;20621;-83
2022/01/05 03:52:52;;;;;;;0.50;0.50;;;;;;;6.83;78.91;94225.38;5016941;28;20789;-85
2022/01/05 03:55:19;;;;;;;0.40;0.40;;;;;;;6.69;79.31;94230.59;5016563;28;20202;-84
2022/01/05 03:57:45;;;;;;;0.50;0.50;;;;;;;6.58;79.36;94231.88;5017059;28;20206;-84
2022/01/05 04:00:13;;;;;;;0.50;0.50;;;;;;;6.57;79.43;94232.84;5016894;28;20211;-82
2022/01/05 04:02:41;;;;;;;0.50;0.50;;;;;;;6.55;79.86;94239.91;5016188;28;20236;-85
2022/01/05 04:05:09;;;;;;;0.40;0.40;;;;;;;6.64;79.64;94231.13;5017069;28;20202;-84
2022/01/05 04:07:36;;;;;;;0.50;0.50;;;;;;;6.65;79.03;94234.50;5015500;28;20205;-84
2022/01/05 04:10:03;;;;;;;0.60;0.60;;;;;;;6.67;79.27;94240.22;5016032;28;20230;-85
2022/01/05 04:12:30;;;;;;;0.50;0.50;;;;;;;6.55;79.21;94243.25;5015543;28;20233;-85
2022/01/05 04:14:56;;;;;;;0.50;0.50;;;;;;;6.48;79.29;94244.19;5016539;28;20234;-84
2022/01/05 04:17:23;;;;;;;0.50;0.50;;;;;;;6.50;79.51;94237.13;5016214;28;20195;-85
2022/01/05 04:19:51;;;;;;;0.57;0.57;;;;;;;6.47;79.10;94234.94;5016271;28;20824;-83
2022/01/05 04:22:17;;;;;;;0.50;0.50;;;;;;;6.51;79.55;94247.19;5015400;28;20241;-81
2022/01/05 04:24:44;;;;;;;0.50;0.50;;;;;;;6.63;78.75;94246.66;5015582;28;20206;-85
2022/01/05 04:27:10;;;;;;;0.50;0.50;;;;;;;6.66;79.05;94243.75;5015922;28;20194;-84
2022/01/05 04:29:37;;;;;;;0.50;0.50;;;;;;;6.51;78.23;94242.06;5014917;28;20233;-83
2022/01/05 04:32:04;;;;;;;0.50;0.50;;;;;;;6.46;78.59;94238.47;5015452;28;20230;-84
2022/01/05 04:34:30;;;;;;;0.50;0.50;;;;;;;6.35;78.79;94237.19;5014683;28;20194;-84
2022/01/05 04:36:58;;;;;;;0.53;0.53;;;;;;;6.20;79.69;94233.91;5014005;28;20195;-84
2022/01/05 04:39:25;;;;;;;0.50;0.50;;;;;;;6.32;79.92;94236.78;5008945;28;20222;-84
2022/01/05 04:41:51;;;;;;;1.03;0.53;;;;;;;6.24;79.22;94232.56;4995055;28;20258;-83
2022/01/05 04:44:18;;;;;;;0.50;0.50;;;;;;;6.18;79.74;94236.63;5013383;28;20206;-85
2022/01/05 04:46:44;;;;;;;1.93;0.60;;;;;;;6.17;80.19;94221.50;5015051;28;20297;-85
2022/01/05 04:49:11;;;;;;;0.50;0.50;;;;;;;5.97;80.20;94215.41;5014757;28;20219;-85
2022/01/05 04:51:37;;;;;;;0.57;0.57;;;;;;;6.16;80.08;94202.03;5014576;28;20254;-85
2022/01/05 04:54:05;;;;;;;0.63;0.50;;;;;;;6.08;80.54;94213.16;5015527;28;20202;-83
2022/01/05 04:56:32;;;;;;;0.40;0.40;;;;;;;6.21;79.74;94218.41;5014240;28;20195;-81
2022/01/05 04:58:58;;;;;;;0.50;0.50;;;;;;;6.19;80.38;94229.75;5015292;28;20206;-85
2022/01/05 05:01:25;;;;;;;0.40;0.40;;;;;;;6.01;80.46;94225.09;5014599;28;20234;-83
2022/01/05 05:03:52;;;;;;;0.50;0.50;;;;;;;5.98;81.15;94228.00;5014531;28;20207;-85
2022/01/05 05:06:18;;;;;;;1.03;0.50;;;;;;;5.97;81.09;94226.41;5011505;28;20724;-85
2022/01/05 05:08:44;;;;;;;0.50;0.50;;;;;;;5.96;81.33;94227.41;5014939;28;20230;-86
2022/01/05 05:11:12;;;;;;;0.50;0.50;;;;;;;6.02;80.66;94229.22;5013942;28;20246;-82
2022/01/05 05:13:39;;;;;;;0.40;0.40;;;;;;;6.12;80.24;94223.81;5015523;28;20225;-81
2022/01/05 05:16:05;;;;;;;0.40;0.40;;;;;;;6.17;80.80;94227.41;5014464;28;20261;-84
2022/01/05 05:18:32;;;;;;;0.60;0.60;;;;;;;6.33;80.23;94228.94;5008680;28;20203;-85
2022/01/05 05:20:59;;;;;;;0.50;0.50;;;;;;;6.47;78.89;94228.06;5011443;28;20252;-83
2022/01/05 05:23:25;;;;;;;0.47;0.47;;;;;;;6.28;78.93;94233.78;5014113;28;20265;-85
2022/01/05 05:25:52;;;;;;;0.50;0.50;;;;;;;6.22;80.18;94224.28;5014375;28;20226;-85
2022/01/05 05:28:20;;;;;;;0.47;0.47;;;;;;;6.37;79.79;94226.78;5014430;28;20686;-84
2022/01/05 05:30:47;;;;;;;0.50;0.50;;;;;;;6.34;79.49;94227.97;5012754;28;20241;-85
2022/01/05 05:33:14;;;;;;;0.50;0.50;;;;;;;6.34;80.09;94234.84;5014272;28;20213;-85
2022/01/05 05:35:41;;;;;;;0.43;0.43;;;;;;;6.28;80.65;94235.56;5013804;28;20198;-86
2022/01/05 05:38:08;;;;;;;0.50;0.50;;;;;;;6.38;80.36;94230.91;5013982;28;20298;-85
2022/01/05 05:40:35;;;;;;;0.50;0.40;;;;;;;6.43;80.12;94226.06;5013519;28;20233;-83
2022/01/05 05:43:02;;;;;;;0.50;0.50;;;;;;;6.43;79.93;94236.28;5011893;28;20206;-85
2022/01/05 05:45:30;;;;;;;0.60;0.60;;;;;;;6.41;80.65;94235.66;5009873;28;20299;-83
2022/01/05 05:47:57;;;;;;;0.50;0.50;;;;;;;6.39;80.72;94235.06;4989027;28;20214;-86
2022/01/05 05:50:24;;;;;;;0.40;0.40;;;;;;;6.34;80.63;94222.84;5008238;28;20230;-84
2022/01/05 05:52:50;;;;;;;0.83;0.43;;;;;;;6.28;81.70;94243.22;5013040;28;20203;-83
2022/01/05 05:55:17;;;;;;;0.50;0.50;;;;;;;6.23;82.11;94248.88;5014355;28;20203;-84
2022/01/05 05:57:44;;;;;;;0.43;0.43;;;;;;;6.21;82.08;94240.59;5012074;28;20206;-85
2022/01/05 06:00:12;;;;;;;0.40;0.40;;;;;;;6.23;82.48;94238.66;5012792;28;20222;-83
2022/01/05 06:02:40;;;;;;;0.50;0.50;;;;;;;6.18;82.25;94236.63;5013022;28;20226;-82
2022/01/05 06:05:07;;;;;;;0.50;0.50;;;;;;;6.19;82.42;94240.78;5013109;28;20198;-85
2022/01/05 06:07:34;;;;;;;0.60;0.60;;;;;;;6.28;83.10;94238.13;5013120;28;20710;-85
2022/01/05 06:10:01;;;;;;;0.53;0.53;;;;;;;6.29;82.40;94243.03;5013355;28;20222;-84
2022/01/05 06:12:28;;;;;;;0.50;0.50;;;;;;;6.28;81.95;94238.91;5012963;28;20422;-84
2022/01/05 06:14:54;;;;;;;0.50;0.50;;;;;;;6.32;81.57;94236.78;5000710;28;20291;-84
2022/01/05 06:17:21;;;;;;;0.40;0.40;;;;;;;6.38;81.62;94247.03;4994720;28;20298;-83
2022/01/05 06:19:49;;;;;;;0.40;0.40;;;;;;;6.24;81.91;94253.81;5001264;28;20218;-85
2022/01/05 06:22:17;;;;;;;0.47;0.47;;;;;;;6.23;82.17;94246.31;5013246;28;20232;-85
2022/01/05 06:24:44;;;;;;;0.40;0.40;;;;;;;6.14;82.72;94252.53;5013135;28;20690;-85
2022/01/05 06:27:11;;;;;;;0.50;0.50;;;;;;;5.98;83.74;94263.75;5004330;28;20278;-84
2022/01/05 06:29:38;;;;;;;0.40;0.40;;;;;;;6.17;83.75;94258.06;5012698;28;20230;-84
2022/01/05 06:32:06;;;;;;;0.50;0.50;;;;;;;6.38;82.59;94253.91;5016131;28;20729;-84
2022/01/05 06:34:33;;;;;;;0.40;0.40;;;;;;;6.27;82.55;94239.88;5017352;28;20231;-84
2022/01/05 06:37:01;;;;;;;0.53;0.50;;;;;;;6.26;82.82;94247.72;5017438;28;20680;-85
2022/01/05 06:39:27;;;;;;;0.40;0.40;;;;;;;6.28;82.92;94243.22;5014809;28;20199;-85
2022/01/05 06:41:54;;;;;;;0.40;0.40;;;;;;;6.28;82.67;94240.66;5018177;28;20241;-85
2022/01/05 06:44:21;;;;;;;0.50;0.50;;;;;;;6.27;82.66;94252.66;5018639;28;20203;-85
2022/01/05 06:46:48;;;;;;;0.50;0.50;;;;;;;6.27;83.03;94244.19;5019215;28;20210;-85
2022/01/05 06:49:14;;;;;;;0.50;0.50;;;;;;;6.31;82.51;94264.09;5019044;28;20218;-84
2022/01/05 06:51:41;;;;;;;0.40;0.40;;;;;;;6.28;83.08;94263.66;5018589;28;20244;-87
2022/01/05 06:54:11;;;;;;;0.40;0.40;;;;;;;6.22;83.11;94273.63;5019419;28;20199;-85
2022/01/05 06:56:37;;;;;;;0.53;0.50;;;;;;;6.21;83.31;94266.16;5018892;28;20210;-85
2022/01/05 06:59:04;;;;;;;0.50;0.50;;;;;;;6.36;83.02;94266.09;5018595;28;20194;-85
2022/01/05 07:01:30;;;;;;;0.50;0.50;;;;;;;6.51;82.55;94270.19;5018574;28;20237;-85
2022/01/05 07:03:57;;;;;;;0.50;0.50;;;;;;;6.46;82.17;94282.72;5001824;28;20203;-86
2022/01/05 07:06:23;;;;;;;0.60;0.60;;;;;;;6.42;83.00;94284.06;5012097;28;20226;-85
2022/01/05 07:08:50;;;;;;;0.50;0.50;;;;;;;6.34;82.87;94275.72;5017868;28;20198;-84
2022/01/05 07:11:18;;;;;;;0.50;0.50;;;;;;;6.47;82.66;94274.06;5018268;28;20231;-86
2022/01/05 07:13:46;;;;;;;0.50;0.50;;;;;;;6.20;82.90;94277.34;5018108;28;20305;-83
2022/01/05 07:16:12;;;;;;;0.60;0.60;;;;;;;6.06;83.61;94273.09;5017756;28;20211;-85
2022/01/05 07:18:39;;;;;;;0.50;0.50;;;;;;;6.12;84.03;94283.38;5018618;28;20373;-84
2022/01/05 07:21:05;;;;;;;0.60;0.60;;;;;;;6.17;84.36;94304.06;5016567;28;20239;-85
2022/01/05 07:23:32;;;;;;;0.50;0.50;;;;;;;6.28;83.87;94284.13;5018250;28;20194;-84
2022/01/05 07:25:58;;;;;;;0.57;0.57;;;;;;;6.25;82.96;94292.94;5018049;28;20207;-84
2022/01/05 07:28:27;;;;;;;0.50;0.50;;;;;;;6.31;83.09;94296.53;5017170;28;20223;-83
2022/01/05 07:30:54;;;;;;;0.50;0.50;;;;;;;6.39;82.51;94304.88;5015238;28;20230;-85
2022/01/05 07:33:20;;;;;;;0.60;0.60;;;;;;;6.47;81.87;94296.28;5015409;28;20195;-82
2022/01/05 07:35:47;;;;;;;1.43;0.60;;;;;;;6.37;82.48;94288.13;5017726;28;20190;-86
2022/01/05 07:38:13;;;;;;;0.50;0.50;;;;;;;6.32;81.99;94308.34;5012699;28;20204;-80
2022/01/05 07:40:40;;;;;;;0.50;0.50;;;;;;;6.39;82.65;94307.41;5006061;28;20255;-86
2022/01/05 07:43:06;;;;;;;0.50;0.50;;;;;;;6.28;83.14;94310.47;5004190;28;20233;-85
2022/01/05 07:45:36;;;;;;;0.50;0.50;;;;;;;6.42;82.56;94308.81;5017612;28;20269;-84
2022/01/05 07:48:03;;;;;;;0.50;0.50;;;;;;;6.45;82.42;94316.13;5019423;28;20260;-86
2022/01/05 07:50:29;;;;;;;0.53;0.53;;;;;;;6.46;83.17;94318.50;5017980;28;20652;-85
2022/01/05 07:52:56;;;;;;;0.50;0.50;;;;;;;6.35;82.28;94311.31;4999591;28;20810;-85
2022/01/05 07:55:22;;;;;;;0.60;0.60;;;;;;;6.33;82.70;94323.50;5012704;28;20195;-86
2022/01/05 07:57:50;;;;;;;0.60;0.60;;;;;;;6.37;82.55;94342.59;5016045;28;20213;-84
2022/01/05 08:00:16;;;;;;;0.93;0.60;;;;;;;6.38;82.80;94343.38;5016549;28;20239;-86
2022/01/05 08:02:44;;;;;;;0.70;0.70;;;;;;;6.35;82.39;94341.22;5016410;28;20231;-82
2022/01/05 08:05:11;;;;;;;0.60;0.60;;;;;;;6.27;82.89;94343.88;5000088;28;20195;-83
2022/01/05 08:07:37;;;;;;;0.80;0.80;;;;;;;6.20;84.07;94336.91;4995930;28;20223;-81
2022/01/05 08:10:04;;;;;;;1.00;0.70;;;;;;;6.34;84.23;94349.84;4996544;28;20633;-85
2022/01/05 08:12:31;;;;;;;0.80;0.80;;;;;;;6.36;83.43;94343.56;4997905;28;20208;-83
2022/01/05 08:14:58;;;;;;;0.60;0.60;;;;;;;6.39;82.79;94343.22;4996560;28;20203;-86
2022/01/05 08:17:24;;;;;;;0.70;0.70;;;;;;;6.38;81.85;94344.19;5009329;28;20231;-85
2022/01/05 08:19:52;;;;;;;0.60;0.60;;;;;;;6.34;82.92;94360.88;4996317;28;20203;-82
2022/01/05 08:22:19;;;;;;;0.60;0.60;;;;;;;6.45;83.09;94365.50;4995866;28;20210;-83
2022/01/05 08:24:45;;;;;;;0.60;0.60;;;;;;;6.36;83.36;94376.00;5006204;28;20199;-81
2022/01/05 08:27:12;;;;;;;0.60;0.60;;;;;;;6.23;82.82;94377.44;5015255;28;20694;-84
2022/01/05 08:29:38;;;;;;;0.60;0.60;;;;;;;6.12;83.56;94382.25;5016527;28;20254;-84
2022/01/05 08:32:06;;;;;;;0.60;0.60;;;;;;;6.13;83.93;94389.72;5016257;28;20195;-86
2022/01/05 08:34:32;;;;;;;0.70;0.70;;;;;;;6.11;82.91;94388.31;5007162;28;20214;-84
2022/01/05 08:37:00;;;;;;;0.77;0.77;;;;;;;6.11;83.66;94407.00;4997101;28;20255;-85
2022/01/05 08:39:29;;;;;;;0.70;0.70;;;;;;;6.19;82.96;94409.44;4998003;28;20224;-84
2022/01/05 08:41:56;;;;;;;0.50;0.50;;;;;;;6.23;82.63;94426.00;4999419;28;20238;-84
2022/01/05 08:44:23;;;;;;;0.60;0.60;;;;;;;6.22;82.32;94423.63;5005005;28;20210;-84
2022/01/05 08:46:49;;;;;;;0.60;0.60;;;;;;;6.14;82.23;94439.06;5015166;28;20231;-83
2022/01/05 08:49:16;;;;;;;0.60;0.60;;;;;;;6.17;82.44;94431.81;5015990;28;20203;-84
2022/01/05 08:51:43;;;;;;;0.77;0.70;;;;;;;6.24;82.21;94429.34;5013785;28;20223;-83
2022/01/05 08:54:11;;;;;;;0.80;0.80;;;;;;;6.14;80.69;94427.09;4996950;28;20208;-84
2022/01/05 08:56:38;;;;;;;0.80;0.70;;;;;;;6.17;81.88;94442.03;4997276;28;20246;-85
2022/01/05 08:59:04;;;;;;;0.77;0.70;;;;;;;6.21;81.88;94453.50;5002105;28;20669;-82
2022/01/05 09:01:31;;;;;;;0.50;0.50;;;;;;;6.25;81.18;94456.50;5015849;28;20249;-85
2022/01/05 09:03:57;;;;;;;0.60;0.60;;;;;;;6.22;80.92;94464.50;5008781;28;20206;-82
2022/01/05 09:06:24;;;;;;;0.60;0.60;;;;;;;6.28;81.85;94465.56;5010593;28;20231;-85
2022/01/05 09:08:50;;;;;;;0.77;0.70;;;;;;;6.30;82.48;94468.75;4996481;28;20206;-84
2022/01/05 09:11:19;;;;;;;0.70;0.60;;;;;;;6.21;81.50;94484.16;4995826;28;20234;-85
2022/01/05 09:13:46;;;;;;;0.60;0.60;;;;;;;6.06;80.16;94488.47;4995715;28;20200;-83
2022/01/05 09:16:12;;;;;;;0.77;0.70;;;;;;;6.06;79.57;94500.47;4996246;28;20565;-84
2022/01/05 09:18:39;;;;;;;0.70;0.70;;;;;;;6.16;79.21;94491.56;5000748;28;20199;-85
2022/01/05 09:21:05;;;;;;;0.80;0.80;;;;;;;6.29;78.67;94508.06;5016426;28;20241;-85
2022/01/05 09:23:32;;;;;;;1.00;0.90;;;;;;;6.31;79.61;94521.47;5007339;28;20215;-84
2022/01/05 09:25:58;;;;;;;1.30;1.20;;;;;;;6.25;77.90;94530.63;4996024;28;20310;-83
2022/01/05 09:28:26;;;;;;;1.10;1.00;;;;;;;6.30;78.13;94541.13;4997811;28;20589;-84
2022/01/05 09:30:53;;;;;;;1.10;1.00;;;;;;;6.20;75.29;94538.78;5002902;28;20235;-85
2022/01/05 09:33:22;;;;;;;0.80;0.80;;;;;;;6.19;74.14;94544.09;5008663;28;20272;-84
2022/01/05 09:35:50;;;;;;;1.07;0.97;;;;;;;6.16;74.82;94545.22;5014732;28;20226;-84
2022/01/05 09:38:35;;;;;;;1.13;1.03;;;;;;;6.07;75.13;94545.50;5015458;28;20225;-85
2022/01/05 09:43:56;;;;;;;1.60;1.30;;;;;;;6.05;74.88;94573.75;5010977;28;20261;-83
2022/01/05 09:46:32;;;;;;;1.50;1.40;;;;;;;6.00;74.57;94577.78;5013761;28;20950;-82
2022/01/05 09:49:03;;;;;;;1.37;1.27;;;;;;;6.02;73.83;94588.63;5002593;28;20802;-84
2022/01/05 09:51:32;;;;;;;1.40;1.30;;;;;;;5.99;73.71;94594.88;4995183;28;20250;-85
2022/01/05 09:54:01;;;;;;;1.30;1.20;;;;;;;6.00;74.27;94593.91;4994712;28;20311;-84
2022/01/05 09:56:30;;;;;;;1.60;1.50;;;;;;;5.96;73.09;94594.47;5003198;28;20231;-84
2022/01/05 09:59:01;;;;;;;1.50;1.40;;;;;;;5.94;74.98;94594.63;5015611;28;20207;-85
2022/01/05 10:01:30;;;;;;;1.77;1.67;;;;;;;6.00;74.91;94611.00;5015073;28;20225;-85
2022/01/05 10:03:57;;;;;;;1.63;1.53;;;;;;;5.92;75.04;94595.75;5015147;28;20206;-85
2022/01/05 10:06:24;;;;;;;1.70;1.60;;;;;;;5.86;74.39;94608.22;5013754;28;20520;-84
2022/01/05 10:08:50;;;;;;;1.87;1.77;;;;;;;5.73;74.11;94610.56;5015044;28;20207;-85
2022/01/05 10:11:17;;;;;;;1.50;1.40;;;;;;;5.80;73.77;94613.22;5015568;28;20234;-85
2022/01/05 10:13:44;;;;;;;1.80;1.70;;;;;;;5.68;74.15;94622.25;5014729;28;20202;-83
2022/01/05 10:16:12;;;;;;;2.50;2.00;;;;;;;5.79;74.53;94622.63;5012732;28;20730;-84
2022/01/05 10:18:43;;;;;;;1.70;1.60;;;;;;;5.88;73.99;94620.81;5013259;28;20198;-84
2022/01/05 10:21:12;;;;;;;3.03;2.20;;;;;;;5.92;73.74;94624.66;5014442;28;20225;-84
2022/01/05 10:23:41;;;;;;;1.83;1.73;;;;;;;5.94;72.06;94624.50;5013484;28;20213;-85
2022/01/05 10:26:28;;;;;;;2.57;2.13;;;;;;;5.95;72.02;94643.97;5013822;28;20233;-86
2022/01/05 10:28:56;;;;;;;3.20;2.20;;;;;;;6.29;93.28;94639.22;5015295;28;20223;-84
2022/01/05 10:31:26;;;;;;;2.53;1.70;;;;;;;6.61;75.62;94647.53;5007715;28;20211;-86
2022/01/05 10:33:53;;;;;;;1.60;1.50;;;;;;;6.51;70.35;94645.25;5013748;28;20297;-86
2022/01/05 10:36:20;;;;;;;2.20;2.00;;;;;;;6.45;70.89;94653.59;5013337;28;20317;-85
2022/01/05 10:38:56;;;;;;;2.20;2.00;;;;;;;6.19;69.76;94644.53;5021407;28;20214;-85
2022/01/05 10:41:25;;;;;;;1.80;1.70;;;;;;;6.24;69.66;94644.81;5014301;28;20222;-84
2022/01/05 10:44:17;;;;;;;2.97;2.10;;;;;;;6.34;70.67;94642.03;5015008;28;20239;-85
2022/01/05 10:46:47;;;;;;;2.37;2.00;;;;;;;6.21;70.30;94650.28;5014599;28;20285;-85
2022/01/05 10:49:31;;;;;;;1.83;1.70;;;;;;;6.20;69.63;94653.00;5006684;28;20199;-86
2022/01/05 10:51:59;;;;;;;3.17;1.60;;;;;;;6.21;69.05;94652.84;5002753;28;20233;-83
2022/01/05 10:54:29;;;;;;;1.77;1.67;;;;;;;6.18;69.42;94650.63;5014398;28;20211;-83
2022/01/05 10:57:07;;;;;;;2.00;1.80;;;;;;;6.04;68.31;94653.94;5013896;28;20234;-86
2022/01/05 10:59:37;;;;;;;1.43;1.33;;;;;;;5.87;68.21;94649.88;5005188;28;20203;-85
2022/01/05 11:02:26;;;;;;;1.93;1.70;;;;;;;5.78;68.01;94659.34;5005571;28;20219;-86
2022/01/05 11:04:54;;;;;;;1.87;1.50;;;;;;;5.81;67.45;94658.22;5014305;28;20191;-86
2022/01/05 11:07:22;;;;;;;1.67;1.57;;;;;;;5.88;67.70;94659.13;5010032;28;20226;-84
2022/01/05 11:09:54;;;;;;;1.80;1.47;;;;;;;5.91;67.22;94658.03;5014027;28;20206;-86
2022/01/05 11:12:21;;;;;;;1.40;1.30;;;;;;;5.86;67.64;94666.97;5014192;28;20229;-83
2022/01/05 11:14:48;;;;;;;1.40;1.30;;;;;;;5.77;67.10;94678.19;5014342;28;20210;-86
2022/01/05 11:17:17;;;;;;;1.77;1.30;;;;;;;5.81;67.35;94688.88;5014871;28;20309;-85
2022/01/05 11:19:45;;;;;;;1.40;1.30;;;;;;;5.86;67.47;94689.94;5001824;28;20203;-84
2022/01/05 11:22:14;;;;;;;1.43;1.33;;;;;;;5.98;67.37;94700.59;5018430;28;20577;-84
2022/01/05 11:24:42;;;;;;;1.87;1.43;;;;;;;6.01;67.89;94700.25;5016924;28;20203;-84
2022/01/05 11:27:11;;;;;;;2.20;1.50;;;;;;;6.08;67.66;94703.72;5017979;28;20227;-84
2022/01/05 11:29:38;;;;;;;1.40;1.30;;;;;;;6.04;67.84;94719.56;5012905;28;20617;-83
2022/01/05 11:32:07;;;;;;;1.20;1.10;;;;;;;5.77;65.88;94724.16;5017165;28;20231;-85
2022/01/05 11:34:34;;;;;;;2.20;1.30;;;;;;;5.61;64.75;94729.34;4999910;28;20215;-83
2022/01/05 11:37:03;;;;;;;1.47;1.30;;;;;;;5.44;63.81;94733.72;5003438;28;20230;-86
2022/01/05 11:39:31;;;;;;;1.40;1.10;;;;;;;5.32;63.40;94742.72;5017409;28;20290;-86
2022/01/05 11:42:00;;;;;;;1.30;1.20;;;;;;;5.39;68.96;94741.09;5015878;28;20711;-84
2022/01/05 11:44:28;;;;;;;4.27;1.83;;;;;;;5.85;76.34;94734.34;5015501;28;20203;-84
2022/01/05 11:46:56;;;;;;;1.80;1.10;;;;;;;6.11;62.95;94740.94;5015648;28;20230;-83